sensor_id;sensor_type;location;lat;lon;timestamp;pressure;altitude;pressure_sealevel;temperature
34807;BMP280;18310;55.586;12.286;2023-12-14T00:02:29;101345.34;;;7.08
34807;BMP280;18310;55.586;12.286;2023-12-14T00:05:32;101348.97;;;7.04
34807;BMP280;18310;55.586;12.286;2023-12-14T00:08:39;101322.47;;;6.92
34807;BMP280;18310;55.586;12.286;2023-12-14T00:11:48;101359.69;;;7.09
34807;BMP280;18310;55.586;12.286;2023-12-14T00:14:52;101368.31;;;7.11
34807;BMP280;18310;55.586;12.286;2023-12-14T00:17:56;101360.97;;;7.11
34807;BMP280;18310;55.586;12.286;2023-12-14T00:20:59;101367.06;;;7.17
34807;BMP280;18310;55.586;12.286;2023-12-14T00:24:05;101362.94;;;7.19
34807;BMP280;18310;55.586;12.286;2023-12-14T00:27:10;101370.75;;;7.21
34807;BMP280;18310;55.586;12.286;2023-12-14T00:30:14;101382.09;;;7.23
34807;BMP280;18310;55.586;12.286;2023-12-14T00:33:17;101389.53;;;7.17
34807;BMP280;18310;55.586;12.286;2023-12-14T00:36:21;101399.72;;;7.20
34807;BMP280;18310;55.586;12.286;2023-12-14T00:39:26;101398.13;;;7.19
34807;BMP280;18310;55.586;12.286;2023-12-14T00:42:30;101395.13;;;7.21
34807;BMP280;18310;55.586;12.286;2023-12-14T00:45:34;101407.84;;;7.20
34807;BMP280;18310;55.586;12.286;2023-12-14T00:48:38;101396.97;;;7.12
34807;BMP280;18310;55.586;12.286;2023-12-14T00:51:43;101415.69;;;7.22
34807;BMP280;18310;55.586;12.286;2023-12-14T00:54:48;101405.22;;;7.29
34807;BMP280;18310;55.586;12.286;2023-12-14T00:57:52;101403.50;;;7.33
34807;BMP280;18310;55.586;12.286;2023-12-14T01:00:55;101419.13;;;7.36
34807;BMP280;18310;55.586;12.286;2023-12-14T01:03:59;101422.44;;;7.33
34807;BMP280;18310;55.586;12.286;2023-12-14T01:07:03;101421.94;;;7.31
34807;BMP280;18310;55.586;12.286;2023-12-14T01:10:10;101430.06;;;7.31
34807;BMP280;18310;55.586;12.286;2023-12-14T01:13:13;101429.75;;;7.32
34807;BMP280;18310;55.586;12.286;2023-12-14T01:16:17;101427.56;;;7.34
34807;BMP280;18310;55.586;12.286;2023-12-14T01:19:21;101433.16;;;7.38
34807;BMP280;18310;55.586;12.286;2023-12-14T01:22:25;101439.00;;;7.31
34807;BMP280;18310;55.586;12.286;2023-12-14T01:25:30;101447.91;;;7.32
34807;BMP280;18310;55.586;12.286;2023-12-14T01:28:34;101448.72;;;7.32
34807;BMP280;18310;55.586;12.286;2023-12-14T01:31:44;101454.44;;;7.31
34807;BMP280;18310;55.586;12.286;2023-12-14T01:34:48;101452.22;;;7.33
34807;BMP280;18310;55.586;12.286;2023-12-14T01:37:52;101455.44;;;7.35
34807;BMP280;18310;55.586;12.286;2023-12-14T01:40:57;101454.44;;;7.31
34807;BMP280;18310;55.586;12.286;2023-12-14T01:44:01;101452.88;;;7.30
34807;BMP280;18310;55.586;12.286;2023-12-14T01:47:05;101449.03;;;7.31
34807;BMP280;18310;55.586;12.286;2023-12-14T01:50:09;101448.03;;;7.27
34807;BMP280;18310;55.586;12.286;2023-12-14T01:53:13;101450.88;;;7.22
34807;BMP280;18310;55.586;12.286;2023-12-14T01:56:18;101454.97;;;7.19
34807;BMP280;18310;55.586;12.286;2023-12-14T01:59:46;101465.63;;;7.16
34807;BMP280;18310;55.586;12.286;2023-12-14T02:02:50;101460.03;;;7.12
34807;BMP280;18310;55.586;12.286;2023-12-14T02:05:54;101461.72;;;7.08
34807;BMP280;18310;55.586;12.286;2023-12-14T02:09:00;101463.97;;;7.06
34807;BMP280;18310;55.586;12.286;2023-12-14T02:12:05;101461.25;;;7.06
34807;BMP280;18310;55.586;12.286;2023-12-14T02:15:10;101460.75;;;7.04
34807;BMP280;18310;55.586;12.286;2023-12-14T02:18:14;101458.53;;;7.06
34807;BMP280;18310;55.586;12.286;2023-12-14T02:21:19;101464.06;;;7.01
34807;BMP280;18310;55.586;12.286;2023-12-14T02:24:24;101466.78;;;7.01
34807;BMP280;18310;55.586;12.286;2023-12-14T02:27:27;101469.56;;;6.96
34807;BMP280;18310;55.586;12.286;2023-12-14T02:30:31;101475.41;;;6.89
34807;BMP280;18310;55.586;12.286;2023-12-14T02:33:35;101475.03;;;6.82
34807;BMP280;18310;55.586;12.286;2023-12-14T02:36:46;101474.03;;;6.78
34807;BMP280;18310;55.586;12.286;2023-12-14T02:39:51;101473.81;;;6.75
34807;BMP280;18310;55.586;12.286;2023-12-14T02:42:55;101474.63;;;6.75
34807;BMP280;18310;55.586;12.286;2023-12-14T02:45:59;101468.41;;;6.75
34807;BMP280;18310;55.586;12.286;2023-12-14T02:49:05;101471.91;;;6.75
34807;BMP280;18310;55.586;12.286;2023-12-14T02:52:09;101473.53;;;6.76
34807;BMP280;18310;55.586;12.286;2023-12-14T02:55:14;101472.22;;;6.74
34807;BMP280;18310;55.586;12.286;2023-12-14T02:58:18;101469.72;;;6.77
34807;BMP280;18310;55.586;12.286;2023-12-14T03:01:21;101478.22;;;6.71
34807;BMP280;18310;55.586;12.286;2023-12-14T03:04:25;101481.44;;;6.73
34807;BMP280;18310;55.586;12.286;2023-12-14T03:07:29;101488.75;;;6.72
34807;BMP280;18310;55.586;12.286;2023-12-14T03:10:34;101493.84;;;6.74
34807;BMP280;18310;55.586;12.286;2023-12-14T03:13:38;101495.47;;;6.75
34807;BMP280;18310;55.586;12.286;2023-12-14T03:16:47;101506.28;;;6.75
34807;BMP280;18310;55.586;12.286;2023-12-14T03:19:51;101498.97;;;6.75
34807;BMP280;18310;55.586;12.286;2023-12-14T03:22:55;101502.78;;;6.74
34807;BMP280;18310;55.586;12.286;2023-12-14T03:26:00;101508.41;;;6.78
34807;BMP280;18310;55.586;12.286;2023-12-14T03:29:04;101509.69;;;6.80
34807;BMP280;18310;55.586;12.286;2023-12-14T03:32:10;101504.47;;;6.84
34807;BMP280;18310;55.586;12.286;2023-12-14T03:35:14;101510.97;;;6.83
34807;BMP280;18310;55.586;12.286;2023-12-14T03:38:18;101514.31;;;6.80
34807;BMP280;18310;55.586;12.286;2023-12-14T03:41:23;101513.31;;;6.76
34807;BMP280;18310;55.586;12.286;2023-12-14T03:44:27;101517.09;;;6.75
34807;BMP280;18310;55.586;12.286;2023-12-14T03:47:31;101518.22;;;6.74
34807;BMP280;18310;55.586;12.286;2023-12-14T03:50:35;101533.13;;;6.71
34807;BMP280;18310;55.586;12.286;2023-12-14T03:53:38;101529.03;;;6.74
34807;BMP280;18310;55.586;12.286;2023-12-14T03:56:48;101533.34;;;6.75
34807;BMP280;18310;55.586;12.286;2023-12-14T03:59:52;101533.34;;;6.75
34807;BMP280;18310;55.586;12.286;2023-12-14T04:02:56;101512.28;;;6.58
34807;BMP280;18310;55.586;12.286;2023-12-14T04:06:00;101536.31;;;6.60
34807;BMP280;18310;55.586;12.286;2023-12-14T04:09:04;101539.72;;;6.51
34807;BMP280;18310;55.586;12.286;2023-12-14T04:12:09;101542.13;;;6.39
34807;BMP280;18310;55.586;12.286;2023-12-14T04:15:13;101554.31;;;6.37
34807;BMP280;18310;55.586;12.286;2023-12-14T04:18:17;101546.59;;;6.30
34807;BMP280;18310;55.586;12.286;2023-12-14T04:21:20;101547.88;;;6.19
34807;BMP280;18310;55.586;12.286;2023-12-14T04:24:24;101548.84;;;6.09
34807;BMP280;18310;55.586;12.286;2023-12-14T04:27:29;101554.59;;;6.03
34807;BMP280;18310;55.586;12.286;2023-12-14T04:30:33;101557.16;;;5.99
34807;BMP280;18310;55.586;12.286;2023-12-14T04:33:37;101559.91;;;5.94
34807;BMP280;18310;55.586;12.286;2023-12-14T04:36:47;101566.78;;;5.87
34807;BMP280;18310;55.586;12.286;2023-12-14T04:39:51;101583.41;;;5.75
34807;BMP280;18310;55.586;12.286;2023-12-14T04:42:56;101581.53;;;5.76
34807;BMP280;18310;55.586;12.286;2023-12-14T04:46:01;101586.41;;;5.73
34807;BMP280;18310;55.586;12.286;2023-12-14T04:49:04;101581.00;;;5.73
34807;BMP280;18310;55.586;12.286;2023-12-14T04:52:08;101578.91;;;5.70
34807;BMP280;18310;55.586;12.286;2023-12-14T04:55:12;101579.19;;;5.69
34807;BMP280;18310;55.586;12.286;2023-12-14T04:58:18;101577.56;;;5.68
34807;BMP280;18310;55.586;12.286;2023-12-14T05:01:22;101574.94;;;5.63
34807;BMP280;18310;55.586;12.286;2023-12-14T05:04:27;101578.94;;;5.65
34807;BMP280;18310;55.586;12.286;2023-12-14T05:07:31;101591.06;;;5.68
34807;BMP280;18310;55.586;12.286;2023-12-14T05:10:34;101583.78;;;5.68
34807;BMP280;18310;55.586;12.286;2023-12-14T05:13:40;101587.06;;;5.65
34807;BMP280;18310;55.586;12.286;2023-12-14T05:16:47;101588.66;;;5.66
34807;BMP280;18310;55.586;12.286;2023-12-14T05:19:51;101593.78;;;5.68
34807;BMP280;18310;55.586;12.286;2023-12-14T05:22:54;101595.91;;;5.71
34807;BMP280;18310;55.586;12.286;2023-12-14T05:25:58;101598.31;;;5.72
34807;BMP280;18310;55.586;12.286;2023-12-14T05:29:04;101596.28;;;5.83
34807;BMP280;18310;55.586;12.286;2023-12-14T05:32:07;101587.50;;;5.91
34807;BMP280;18310;55.586;12.286;2023-12-14T05:35:12;101583.63;;;5.97
34807;BMP280;18310;55.586;12.286;2023-12-14T05:38:16;101593.56;;;6.02
34807;BMP280;18310;55.586;12.286;2023-12-14T05:41:19;101607.56;;;6.04
34807;BMP280;18310;55.586;12.286;2023-12-14T05:44:25;101609.41;;;6.08
34807;BMP280;18310;55.586;12.286;2023-12-14T05:47:28;101603.19;;;6.08
34807;BMP280;18310;55.586;12.286;2023-12-14T05:50:34;101607.28;;;6.05
34807;BMP280;18310;55.586;12.286;2023-12-14T05:53:38;101611.34;;;6.03
34807;BMP280;18310;55.586;12.286;2023-12-14T05:56:47;101617.28;;;6.05
34807;BMP280;18310;55.586;12.286;2023-12-14T05:59:52;101614.53;;;6.10
34807;BMP280;18310;55.586;12.286;2023-12-14T06:02:56;101612.09;;;6.08
34807;BMP280;18310;55.586;12.286;2023-12-14T06:06:00;101624.72;;;6.13
34807;BMP280;18310;55.586;12.286;2023-12-14T06:09:04;101627.16;;;6.14
34807;BMP280;18310;55.586;12.286;2023-12-14T06:12:09;101635.75;;;6.17
34807;BMP280;18310;55.586;12.286;2023-12-14T06:15:16;101641.38;;;6.20
34807;BMP280;18310;55.586;12.286;2023-12-14T06:18:19;101636.19;;;6.24
34807;BMP280;18310;55.586;12.286;2023-12-14T06:21:23;101648.03;;;6.28
34807;BMP280;18310;55.586;12.286;2023-12-14T06:24:28;101639.19;;;6.22
34807;BMP280;18310;55.586;12.286;2023-12-14T06:27:32;101651.13;;;6.35
34807;BMP280;18310;55.586;12.286;2023-12-14T06:30:38;101661.59;;;6.41
34807;BMP280;18310;55.586;12.286;2023-12-14T06:33:42;101655.59;;;6.44
34807;BMP280;18310;55.586;12.286;2023-12-14T06:37:10;101643.47;;;6.42
34807;BMP280;18310;55.586;12.286;2023-12-14T06:40:14;101648.66;;;6.38
34807;BMP280;18310;55.586;12.286;2023-12-14T06:43:18;101657.06;;;6.37
34807;BMP280;18310;55.586;12.286;2023-12-14T06:46:22;101666.50;;;6.39
34807;BMP280;18310;55.586;12.286;2023-12-14T06:49:25;101669.91;;;6.45
34807;BMP280;18310;55.586;12.286;2023-12-14T06:52:31;101671.72;;;6.49
34807;BMP280;18310;55.586;12.286;2023-12-14T06:55:36;101671.72;;;6.49
34807;BMP280;18310;55.586;12.286;2023-12-14T06:58:40;101670.63;;;6.50
34807;BMP280;18310;55.586;12.286;2023-12-14T07:01:44;101669.84;;;6.50
34807;BMP280;18310;55.586;12.286;2023-12-14T07:04:48;101674.53;;;6.44
34807;BMP280;18310;55.586;12.286;2023-12-14T07:07:54;101683.94;;;6.47
34807;BMP280;18310;55.586;12.286;2023-12-14T07:10:59;101687.97;;;6.49
34807;BMP280;18310;55.586;12.286;2023-12-14T07:14:02;101698.53;;;6.46
34807;BMP280;18310;55.586;12.286;2023-12-14T07:17:06;101698.66;;;6.41
34807;BMP280;18310;55.586;12.286;2023-12-14T07:20:11;101702.16;;;6.41
34807;BMP280;18310;55.586;12.286;2023-12-14T07:23:17;101703.19;;;6.45
34807;BMP280;18310;55.586;12.286;2023-12-14T07:26:39;101706.38;;;6.47
34807;BMP280;18310;55.586;12.286;2023-12-14T07:29:43;101711.22;;;6.50
34807;BMP280;18310;55.586;12.286;2023-12-14T07:32:47;101715.25;;;6.53
34807;BMP280;18310;55.586;12.286;2023-12-14T07:35:51;101724.69;;;6.56
34807;BMP280;18310;55.586;12.286;2023-12-14T07:38:55;101721.44;;;6.53
34807;BMP280;18310;55.586;12.286;2023-12-14T07:42:01;101734.00;;;6.63
34807;BMP280;18310;55.586;12.286;2023-12-14T07:45:06;101739.94;;;6.65
34807;BMP280;18310;55.586;12.286;2023-12-14T07:48:11;101729.09;;;6.65
34807;BMP280;18310;55.586;12.286;2023-12-14T07:51:15;101737.75;;;6.67
34807;BMP280;18310;55.586;12.286;2023-12-14T07:54:19;101737.09;;;6.70
34807;BMP280;18310;55.586;12.286;2023-12-14T07:57:25;101743.84;;;6.73
34807;BMP280;18310;55.586;12.286;2023-12-14T08:00:29;101753.00;;;6.77
34807;BMP280;18310;55.586;12.286;2023-12-14T08:03:33;101748.78;;;6.84
34807;BMP280;18310;55.586;12.286;2023-12-14T08:06:44;101744.69;;;6.87
34807;BMP280;18310;55.586;12.286;2023-12-14T08:09:47;101755.44;;;6.92
34807;BMP280;18310;55.586;12.286;2023-12-14T08:12:53;101758.34;;;6.95
34807;BMP280;18310;55.586;12.286;2023-12-14T08:15:57;101763.91;;;7.04
34807;BMP280;18310;55.586;12.286;2023-12-14T08:19:01;101769.16;;;7.14
34807;BMP280;18310;55.586;12.286;2023-12-14T08:22:05;101780.91;;;7.23
34807;BMP280;18310;55.586;12.286;2023-12-14T08:25:11;101777.78;;;7.30
34807;BMP280;18310;55.586;12.286;2023-12-14T08:28:18;101776.81;;;7.40
34807;BMP280;18310;55.586;12.286;2023-12-14T08:31:21;101774.81;;;7.45
34807;BMP280;18310;55.586;12.286;2023-12-14T08:34:26;101776.94;;;7.48
34807;BMP280;18310;55.586;12.286;2023-12-14T08:37:30;101771.28;;;7.45
34807;BMP280;18310;55.586;12.286;2023-12-14T08:40:34;101786.06;;;7.52
34807;BMP280;18310;55.586;12.286;2023-12-14T08:43:39;101784.84;;;7.58
34807;BMP280;18310;55.586;12.286;2023-12-14T08:46:47;101791.97;;;7.68
34807;BMP280;18310;55.586;12.286;2023-12-14T08:49:51;101798.19;;;7.68
34807;BMP280;18310;55.586;12.286;2023-12-14T08:53:18;101800.00;;;7.73
34807;BMP280;18310;55.586;12.286;2023-12-14T08:56:22;101806.75;;;7.75
34807;BMP280;18310;55.586;12.286;2023-12-14T08:59:26;101806.22;;;7.73
34807;BMP280;18310;55.586;12.286;2023-12-14T09:02:30;101814.88;;;7.75
34807;BMP280;18310;55.586;12.286;2023-12-14T09:05:34;101821.00;;;7.81
34807;BMP280;18310;55.586;12.286;2023-12-14T09:08:40;101816.47;;;7.90
34807;BMP280;18310;55.586;12.286;2023-12-14T09:11:47;101806.94;;;7.93
34807;BMP280;18310;55.586;12.286;2023-12-14T09:14:54;101818.56;;;8.07
34807;BMP280;18310;55.586;12.286;2023-12-14T09:17:58;101819.19;;;8.04
34807;BMP280;18310;55.586;12.286;2023-12-14T09:21:02;101817.50;;;7.94
34807;BMP280;18310;55.586;12.286;2023-12-14T09:24:07;101815.38;;;7.91
34807;BMP280;18310;55.586;12.286;2023-12-14T09:27:15;101816.97;;;7.92
34807;BMP280;18310;55.586;12.286;2023-12-14T09:30:18;101812.34;;;7.93
34807;BMP280;18310;55.586;12.286;2023-12-14T09:33:22;101817.56;;;7.89
34807;BMP280;18310;55.586;12.286;2023-12-14T09:36:26;101827.81;;;7.92
34807;BMP280;18310;55.586;12.286;2023-12-14T09:39:32;101821.47;;;7.97
34807;BMP280;18310;55.586;12.286;2023-12-14T09:42:37;101822.47;;;8.01
34807;BMP280;18310;55.586;12.286;2023-12-14T09:45:42;101820.56;;;8.01
34807;BMP280;18310;55.586;12.286;2023-12-14T09:48:50;101819.47;;;8.02
34807;BMP280;18310;55.586;12.286;2023-12-14T09:51:54;101818.38;;;8.03
34807;BMP280;18310;55.586;12.286;2023-12-14T09:55:00;101819.97;;;8.04
34807;BMP280;18310;55.586;12.286;2023-12-14T09:58:06;101826.22;;;8.05
34807;BMP280;18310;55.586;12.286;2023-12-14T10:01:29;101819.38;;;8.07
34807;BMP280;18310;55.586;12.286;2023-12-14T10:04:33;101827.91;;;8.14
34807;BMP280;18310;55.586;12.286;2023-12-14T10:07:41;101830.97;;;8.21
34807;BMP280;18310;55.586;12.286;2023-12-14T10:10:49;101828.56;;;8.20
34807;BMP280;18310;55.586;12.286;2023-12-14T10:13:55;101830.97;;;8.21
34807;BMP280;18310;55.586;12.286;2023-12-14T10:17:13;101837.44;;;8.26
34807;BMP280;18310;55.586;12.286;2023-12-14T10:20:19;101841.16;;;8.30
34807;BMP280;18310;55.586;12.286;2023-12-14T10:23:24;101837.19;;;8.36
34807;BMP280;18310;55.586;12.286;2023-12-14T10:26:31;101840.59;;;8.41
34807;BMP280;18310;55.586;12.286;2023-12-14T10:29:35;101844.31;;;8.45
34807;BMP280;18310;55.586;12.286;2023-12-14T10:32:40;101843.31;;;8.41
34807;BMP280;18310;55.586;12.286;2023-12-14T10:35:44;101840.94;;;8.40
34807;BMP280;18310;55.586;12.286;2023-12-14T10:38:52;101841.31;;;8.47
34807;BMP280;18310;55.586;12.286;2023-12-14T10:41:58;101835.13;;;8.55
34807;BMP280;18310;55.586;12.286;2023-12-14T10:45:17;101845.28;;;8.63
34807;BMP280;18310;55.586;12.286;2023-12-14T10:48:26;101848.06;;;8.72
34807;BMP280;18310;55.586;12.286;2023-12-14T10:51:32;101847.75;;;8.73
34807;BMP280;18310;55.586;12.286;2023-12-14T10:54:37;101845.03;;;8.73
34807;BMP280;18310;55.586;12.286;2023-12-14T10:57:43;101845.34;;;8.72
34807;BMP280;18310;55.586;12.286;2023-12-14T11:00:59;101851.78;;;8.76
34807;BMP280;18310;55.586;12.286;2023-12-14T11:04:03;101850.53;;;8.82
34807;BMP280;18310;55.586;12.286;2023-12-14T11:07:15;101852.13;;;8.83
34807;BMP280;18310;55.586;12.286;2023-12-14T11:10:23;101864.09;;;8.82
34807;BMP280;18310;55.586;12.286;2023-12-14T11:13:32;101870.63;;;8.81
34807;BMP280;18310;55.586;12.286;2023-12-14T11:16:37;101869.84;;;8.80
34807;BMP280;18310;55.586;12.286;2023-12-14T11:19:47;101872.44;;;8.85
34807;BMP280;18310;55.586;12.286;2023-12-14T11:22:55;101868.19;;;8.93
34807;BMP280;18310;55.586;12.286;2023-12-14T11:26:00;101871.19;;;8.91
34807;BMP280;18310;55.586;12.286;2023-12-14T11:29:07;101874.25;;;8.90
34807;BMP280;18310;55.586;12.286;2023-12-14T11:32:11;101855.47;;;8.80
34807;BMP280;18310;55.586;12.286;2023-12-14T11:35:15;101867.59;;;8.96
34807;BMP280;18310;55.586;12.286;2023-12-14T11:38:19;101869.50;;;8.95
34807;BMP280;18310;55.586;12.286;2023-12-14T11:41:24;101879.59;;;9.03
34807;BMP280;18310;55.586;12.286;2023-12-14T11:44:31;101887.81;;;9.12
34807;BMP280;18310;55.586;12.286;2023-12-14T11:47:37;101874.22;;;9.12
34807;BMP280;18310;55.586;12.286;2023-12-14T11:50:42;101882.19;;;9.31
34807;BMP280;18310;55.586;12.286;2023-12-14T11:53:47;101888.59;;;9.35
34807;BMP280;18310;55.586;12.286;2023-12-14T11:56:51;101897.13;;;9.42
34807;BMP280;18310;55.586;12.286;2023-12-14T11:59:59;101893.13;;;9.48
34807;BMP280;18310;55.586;12.286;2023-12-14T12:03:07;101909.03;;;9.55
34807;BMP280;18310;55.586;12.286;2023-12-14T12:06:20;101906.47;;;9.58
34807;BMP280;18310;55.586;12.286;2023-12-14T12:09:36;101899.78;;;9.64
34807;BMP280;18310;55.586;12.286;2023-12-14T12:12:40;101908.06;;;9.59
34807;BMP280;18310;55.586;12.286;2023-12-14T12:15:48;101905.06;;;9.61
34807;BMP280;18310;55.586;12.286;2023-12-14T12:18:52;101912.28;;;9.65
34807;BMP280;18310;55.586;12.286;2023-12-14T12:21:56;101903.97;;;9.70
34807;BMP280;18310;55.586;12.286;2023-12-14T12:25:00;101914.25;;;9.73
34807;BMP280;18310;55.586;12.286;2023-12-14T12:28:16;101904.94;;;9.74
34807;BMP280;18310;55.586;12.286;2023-12-14T12:31:22;101904.97;;;9.83
34807;BMP280;18310;55.586;12.286;2023-12-14T12:34:26;101912.72;;;9.89
34807;BMP280;18310;55.586;12.286;2023-12-14T12:37:29;101926.75;;;9.83
34807;BMP280;18310;55.586;12.286;2023-12-14T12:40:33;101921.81;;;9.85
34807;BMP280;18310;55.586;12.286;2023-12-14T12:43:44;101929.03;;;9.89
34807;BMP280;18310;55.586;12.286;2023-12-14T12:46:50;101927.25;;;9.93
34807;BMP280;18310;55.586;12.286;2023-12-14T12:50:12;101922.03;;;9.97
34807;BMP280;18310;55.586;12.286;2023-12-14T12:53:16;101917.84;;;10.00
34807;BMP280;18310;55.586;12.286;2023-12-14T12:56:21;101922.53;;;9.99
34807;BMP280;18310;55.586;12.286;2023-12-14T12:59:25;101916.75;;;10.01
34807;BMP280;18310;55.586;12.286;2023-12-14T13:02:30;101911.00;;;10.02
34807;BMP280;18310;55.586;12.286;2023-12-14T13:05:34;101914.03;;;10.01
34807;BMP280;18310;55.586;12.286;2023-12-14T13:08:38;101905.81;;;9.92
34807;BMP280;18310;55.586;12.286;2023-12-14T13:12:10;101907.91;;;9.86
34807;BMP280;18310;55.586;12.286;2023-12-14T13:15:14;101912.84;;;9.84
34807;BMP280;18310;55.586;12.286;2023-12-14T13:18:18;101915.72;;;9.79
34807;BMP280;18310;55.586;12.286;2023-12-14T13:21:22;101918.25;;;9.76
34807;BMP280;18310;55.586;12.286;2023-12-14T13:24:26;101906.69;;;9.70
34807;BMP280;18310;55.586;12.286;2023-12-14T13:27:32;101903.19;;;9.70
34807;BMP280;18310;55.586;12.286;2023-12-14T13:30:39;101901.25;;;9.70
34807;BMP280;18310;55.586;12.286;2023-12-14T13:33:43;101911.03;;;9.71
34807;BMP280;18310;55.586;12.286;2023-12-14T13:36:51;101917.28;;;9.72
34807;BMP280;18310;55.586;12.286;2023-12-14T13:39:55;101921.72;;;9.68
34807;BMP280;18310;55.586;12.286;2023-12-14T13:43:00;101929.22;;;9.62
34807;BMP280;18310;55.586;12.286;2023-12-14T13:46:12;101932.84;;;9.58
34807;BMP280;18310;55.586;12.286;2023-12-14T13:49:23;101926.28;;;9.59
34807;BMP280;18310;55.586;12.286;2023-12-14T13:52:27;101929.66;;;9.56
34807;BMP280;18310;55.586;12.286;2023-12-14T13:55:34;101929.78;;;9.51
34807;BMP280;18310;55.586;12.286;2023-12-14T13:58:39;101949.41;;;9.47
34807;BMP280;18310;55.586;12.286;2023-12-14T14:01:43;101953.22;;;9.46
34807;BMP280;18310;55.586;12.286;2023-12-14T14:04:47;101965.78;;;9.34
34807;BMP280;18310;55.586;12.286;2023-12-14T14:07:51;101969.03;;;9.22
34807;BMP280;18310;55.586;12.286;2023-12-14T14:10:55;101967.75;;;9.20
34807;BMP280;18310;55.586;12.286;2023-12-14T14:14:01;101973.31;;;9.15
34807;BMP280;18310;55.586;12.286;2023-12-14T14:17:06;101989.09;;;9.13
34807;BMP280;18310;55.586;12.286;2023-12-14T14:20:10;101986.03;;;9.05
34807;BMP280;18310;55.586;12.286;2023-12-14T14:23:15;101987.94;;;9.05
34807;BMP280;18310;55.586;12.286;2023-12-14T14:26:18;101989.41;;;9.11
34807;BMP280;18310;55.586;12.286;2023-12-14T14:29:24;101984.47;;;9.13
34807;BMP280;18310;55.586;12.286;2023-12-14T14:32:27;101988.50;;;9.16
34807;BMP280;18310;55.586;12.286;2023-12-14T14:35:33;101997.53;;;9.25
34807;BMP280;18310;55.586;12.286;2023-12-14T14:38:39;102015.16;;;9.27
34807;BMP280;18310;55.586;12.286;2023-12-14T14:41:43;102035.19;;;9.18
34807;BMP280;18310;55.586;12.286;2023-12-14T14:44:49;102030.59;;;9.04
34807;BMP280;18310;55.586;12.286;2023-12-14T14:47:53;102029.69;;;8.95
34807;BMP280;18310;55.586;12.286;2023-12-14T14:50:57;102060.16;;;8.92
34807;BMP280;18310;55.586;12.286;2023-12-14T14:54:01;102054.47;;;8.80
34807;BMP280;18310;55.586;12.286;2023-12-14T14:57:05;102035.34;;;8.72
34807;BMP280;18310;55.586;12.286;2023-12-14T15:00:13;102060.81;;;8.76
34807;BMP280;18310;55.586;12.286;2023-12-14T15:03:18;102073.16;;;8.68
34807;BMP280;18310;55.586;12.286;2023-12-14T15:06:24;102062.19;;;8.59
34807;BMP280;18310;55.586;12.286;2023-12-14T15:09:28;102073.94;;;8.55
34807;BMP280;18310;55.586;12.286;2023-12-14T15:12:31;102065.41;;;8.48
34807;BMP280;18310;55.586;12.286;2023-12-14T15:15:37;102061.28;;;8.37
34807;BMP280;18310;55.586;12.286;2023-12-14T15:18:41;102058.94;;;8.44
34807;BMP280;18310;55.586;12.286;2023-12-14T15:21:45;102061.88;;;8.47
34807;BMP280;18310;55.586;12.286;2023-12-14T15:24:49;102065.69;;;8.46
34807;BMP280;18310;55.586;12.286;2023-12-14T15:27:53;102059.25;;;8.42
34807;BMP280;18310;55.586;12.286;2023-12-14T15:30:58;102061.66;;;8.44
34807;BMP280;18310;55.586;12.286;2023-12-14T15:34:01;102061.06;;;8.47
34807;BMP280;18310;55.586;12.286;2023-12-14T15:37:06;102062.97;;;8.46
34807;BMP280;18310;55.586;12.286;2023-12-14T15:40:10;102068.81;;;8.40
34807;BMP280;18310;55.586;12.286;2023-12-14T15:43:14;102083.31;;;8.49
34807;BMP280;18310;55.586;12.286;2023-12-14T15:46:19;102082.06;;;8.55
34807;BMP280;18310;55.586;12.286;2023-12-14T15:49:23;102075.84;;;8.54
34807;BMP280;18310;55.586;12.286;2023-12-14T15:52:27;102078.25;;;8.56
34807;BMP280;18310;55.586;12.286;2023-12-14T15:55:31;102087.00;;;8.53
34807;BMP280;18310;55.586;12.286;2023-12-14T15:58:35;102084.28;;;8.53
34807;BMP280;18310;55.586;12.286;2023-12-14T16:01:40;102078.69;;;8.49
34807;BMP280;18310;55.586;12.286;2023-12-14T16:04:49;102090.81;;;8.52
34807;BMP280;18310;55.586;12.286;2023-12-14T16:07:53;102088.81;;;8.57
34807;BMP280;18310;55.586;12.286;2023-12-14T16:10:57;102087.22;;;8.56
34807;BMP280;18310;55.586;12.286;2023-12-14T16:14:00;102097.97;;;8.48
34807;BMP280;18310;55.586;12.286;2023-12-14T16:17:05;102100.25;;;8.41
34807;BMP280;18310;55.586;12.286;2023-12-14T16:20:09;102103.13;;;8.31
34807;BMP280;18310;55.586;12.286;2023-12-14T16:25:18;102103.75;;;8.28
34807;BMP280;18310;55.586;12.286;2023-12-14T16:28:22;102106.63;;;8.31
34807;BMP280;18310;55.586;12.286;2023-12-14T16:31:26;102101.44;;;8.35
34807;BMP280;18310;55.586;12.286;2023-12-14T16:34:30;102096.72;;;8.27
34807;BMP280;18310;55.586;12.286;2023-12-14T16:37:34;102118.75;;;8.39
34807;BMP280;18310;55.586;12.286;2023-12-14T16:40:39;102126.25;;;8.42
34807;BMP280;18310;55.586;12.286;2023-12-14T16:43:43;102128.09;;;8.46
34807;BMP280;18310;55.586;12.286;2023-12-14T16:46:46;102122.69;;;8.46
34807;BMP280;18310;55.586;12.286;2023-12-14T16:49:52;102124.59;;;8.46
34807;BMP280;18310;55.586;12.286;2023-12-14T16:52:56;102124.50;;;8.51
34807;BMP280;18310;55.586;12.286;2023-12-14T16:56:01;102133.63;;;8.55
34807;BMP280;18310;55.586;12.286;2023-12-14T16:59:07;102126.81;;;8.57
34807;BMP280;18310;55.586;12.286;2023-12-14T17:02:10;102131.66;;;8.60
34807;BMP280;18310;55.586;12.286;2023-12-14T17:05:15;102128.34;;;8.63
34807;BMP280;18310;55.586;12.286;2023-12-14T17:08:19;102125.63;;;8.63
34807;BMP280;18310;55.586;12.286;2023-12-14T17:12:10;102136.16;;;8.65
34807;BMP280;18310;55.586;12.286;2023-12-14T17:15:13;102129.72;;;8.61
34807;BMP280;18310;55.586;12.286;2023-12-14T17:18:17;102136.78;;;8.62
34807;BMP280;18310;55.586;12.286;2023-12-14T17:21:23;102137.09;;;8.60
34807;BMP280;18310;55.586;12.286;2023-12-14T17:24:28;102138.06;;;8.51
34807;BMP280;18310;55.586;12.286;2023-12-14T17:27:36;102144.97;;;8.43
34807;BMP280;18310;55.586;12.286;2023-12-14T17:30:40;102150.22;;;8.40
34807;BMP280;18310;55.586;12.286;2023-12-14T17:33:44;102150.78;;;8.37
34807;BMP280;18310;55.586;12.286;2023-12-14T17:36:47;102149.22;;;8.31